sensor_id;sensor_type;location;lat;lon;timestamp;temperature;humidity
25214;DHT22;13160;51.834;4.706;2024-02-21T06:32:17;9.90;99.90
25214;DHT22;13160;51.834;4.706;2024-02-21T08:36:49;10.20;99.90
25214;DHT22;13160;51.834;4.706;2024-02-21T08:42:00;10.20;99.90
25214;DHT22;13160;51.834;4.706;2024-02-21T08:44:57;10.20;99.90
25214;DHT22;13160;51.834;4.706;2024-02-21T09:02:05;10.20;99.90
25214;DHT22;13160;51.834;4.706;2024-02-21T09:04:38;10.20;99.90
25214;DHT22;13160;51.834;4.706;2024-02-21T09:07:32;10.20;99.90
25214;DHT22;13160;51.834;4.706;2024-02-21T09:15:17;10.30;99.90
25214;DHT22;13160;51.834;4.706;2024-02-21T09:26:46;10.40;99.90
25214;DHT22;13160;51.834;4.706;2024-02-21T12:55:09;11.70;99.90
25214;DHT22;13160;51.834;4.706;2024-02-21T13:01:15;11.60;99.90
25214;DHT22;13160;51.834;4.706;2024-02-21T13:03:57;11.60;99.90
25214;DHT22;13160;51.834;4.706;2024-02-21T13:06:33;11.70;99.90
25214;DHT22;13160;51.834;4.706;2024-02-21T13:09:18;11.70;99.90
25214;DHT22;13160;51.834;4.706;2024-02-21T13:14:53;11.70;99.90
25214;DHT22;13160;51.834;4.706;2024-02-21T13:38:26;11.70;99.90
25214;DHT22;13160;51.834;4.706;2024-02-21T13:57:45;11.60;99.90
25214;DHT22;13160;51.834;4.706;2024-02-21T14:02:50;11.60;99.90
25214;DHT22;13160;51.834;4.706;2024-02-21T14:05:19;11.60;99.90
25214;DHT22;13160;51.834;4.706;2024-02-21T14:07:47;11.60;99.90
25214;DHT22;13160;51.834;4.706;2024-02-21T15:08:31;10.70;99.90
25214;DHT22;13160;51.834;4.706;2024-02-21T15:11:10;10.70;99.90
25214;DHT22;13160;51.834;4.706;2024-02-21T15:13:51;10.60;99.90
25214;DHT22;13160;51.834;4.706;2024-02-21T15:16:37;10.60;99.90
25214;DHT22;13160;51.834;4.706;2024-02-21T15:19:35;10.60;99.90
25214;DHT22;13160;51.834;4.706;2024-02-21T15:22:47;10.60;99.90
25214;DHT22;13160;51.834;4.706;2024-02-21T15:33:08;10.40;99.90
25214;DHT22;13160;51.834;4.706;2024-02-21T15:45:59;10.30;99.90
25214;DHT22;13160;51.834;4.706;2024-02-21T15:49:26;10.30;99.90
25214;DHT22;13160;51.834;4.706;2024-02-21T15:52:25;10.30;99.90
25214;DHT22;13160;51.834;4.706;2024-02-21T15:55:24;10.30;99.90
25214;DHT22;13160;51.834;4.706;2024-02-21T16:06:39;10.20;99.90
25214;DHT22;13160;51.834;4.706;2024-02-21T16:10:07;10.10;99.90
25214;DHT22;13160;51.834;4.706;2024-02-21T16:12:57;10.20;99.90
25214;DHT22;13160;51.834;4.706;2024-02-21T16:15:46;10.20;99.90
25214;DHT22;13160;51.834;4.706;2024-02-21T16:18:21;10.20;99.90
25214;DHT22;13160;51.834;4.706;2024-02-21T16:21:05;10.20;99.90
25214;DHT22;13160;51.834;4.706;2024-02-21T16:24:02;10.10;99.90
25214;DHT22;13160;51.834;4.706;2024-02-21T16:26:52;10.10;99.90
25214;DHT22;13160;51.834;4.706;2024-02-21T16:30:05;10.10;99.90
25214;DHT22;13160;51.834;4.706;2024-02-21T16:32:51;10.10;99.90
25214;DHT22;13160;51.834;4.706;2024-02-21T16:35:40;10.10;99.90
25214;DHT22;13160;51.834;4.706;2024-02-21T16:38:45;10.10;99.90
25214;DHT22;13160;51.834;4.706;2024-02-21T16:44:51;10.10;99.90
25214;DHT22;13160;51.834;4.706;2024-02-21T16:47:58;10.10;99.90
25214;DHT22;13160;51.834;4.706;2024-02-21T16:54:09;10.10;99.90
25214;DHT22;13160;51.834;4.706;2024-02-21T16:56:56;10.10;99.90
25214;DHT22;13160;51.834;4.706;2024-02-21T17:03:20;10.10;99.90
25214;DHT22;13160;51.834;4.706;2024-02-21T17:08:58;10.00;99.90
25214;DHT22;13160;51.834;4.706;2024-02-21T17:15:17;10.10;99.90
25214;DHT22;13160;51.834;4.706;2024-02-21T17:28:42;10.10;99.90
25214;DHT22;13160;51.834;4.706;2024-02-21T17:31:22;10.10;99.90
25214;DHT22;13160;51.834;4.706;2024-02-21T17:33:58;10.10;99.90
25214;DHT22;13160;51.834;4.706;2024-02-21T17:37:09;10.10;99.90
25214;DHT22;13160;51.834;4.706;2024-02-21T17:40:09;10.10;99.90
25214;DHT22;13160;51.834;4.706;2024-02-21T17:49:40;10.10;99.90
25214;DHT22;13160;51.834;4.706;2024-02-21T17:52:21;10.10;99.90
25214;DHT22;13160;51.834;4.706;2024-02-21T17:55:04;10.10;99.90
25214;DHT22;13160;51.834;4.706;2024-02-21T17:57:35;10.10;99.90
25214;DHT22;13160;51.834;4.706;2024-02-21T18:00:06;10.20;99.90
25214;DHT22;13160;51.834;4.706;2024-02-21T18:02:41;10.10;99.90
25214;DHT22;13160;51.834;4.706;2024-02-21T18:17:02;10.10;99.90
25214;DHT22;13160;51.834;4.706;2024-02-21T18:25:46;10.20;99.90
25214;DHT22;13160;51.834;4.706;2024-02-21T18:28:38;10.20;99.90
25214;DHT22;13160;51.834;4.706;2024-02-21T18:31:10;10.20;99.90
25214;DHT22;13160;51.834;4.706;2024-02-21T19:09:17;10.30;99.90
25214;DHT22;13160;51.834;4.706;2024-02-21T19:20:29;10.30;99.90
25214;DHT22;13160;51.834;4.706;2024-02-21T19:23:56;10.30;99.90
25214;DHT22;13160;51.834;4.706;2024-02-21T19:26:33;10.30;99.90
25214;DHT22;13160;51.834;4.706;2024-02-21T19:29:04;10.30;99.90
25214;DHT22;13160;51.834;4.706;2024-02-21T19:31:43;10.30;99.90
25214;DHT22;13160;51.834;4.706;2024-02-21T19:34:15;10.30;99.90
25214;DHT22;13160;51.834;4.706;2024-02-21T19:39:55;10.30;99.90
25214;DHT22;13160;51.834;4.706;2024-02-21T19:42:27;10.30;99.90
25214;DHT22;13160;51.834;4.706;2024-02-21T19:44:59;10.30;99.90
25214;DHT22;13160;51.834;4.706;2024-02-21T19:47:35;10.30;99.90
25214;DHT22;13160;51.834;4.706;2024-02-21T19:50:49;10.30;99.90
25214;DHT22;13160;51.834;4.706;2024-02-21T19:54:04;10.40;99.90
25214;DHT22;13160;51.834;4.706;2024-02-21T19:57:12;10.40;99.90
25214;DHT22;13160;51.834;4.706;2024-02-21T20:00:46;10.40;99.90
25214;DHT22;13160;51.834;4.706;2024-02-21T20:03:30;10.40;99.90
25214;DHT22;13160;51.834;4.706;2024-02-21T20:06:46;10.40;99.90
25214;DHT22;13160;51.834;4.706;2024-02-21T20:09:20;10.40;99.90
25214;DHT22;13160;51.834;4.706;2024-02-21T20:11:59;10.40;99.90
25214;DHT22;13160;51.834;4.706;2024-02-21T20:14:31;10.40;99.90
25214;DHT22;13160;51.834;4.706;2024-02-21T20:17:02;10.40;99.90
25214;DHT22;13160;51.834;4.706;2024-02-21T20:19:32;10.40;99.90
25214;DHT22;13160;51.834;4.706;2024-02-21T20:22:02;10.40;99.90
25214;DHT22;13160;51.834;4.706;2024-02-21T20:24:34;10.40;99.90
25214;DHT22;13160;51.834;4.706;2024-02-21T20:27:07;10.40;99.90
25214;DHT22;13160;51.834;4.706;2024-02-21T20:29:37;10.40;99.90
25214;DHT22;13160;51.834;4.706;2024-02-21T20:32:11;10.40;99.90
25214;DHT22;13160;51.834;4.706;2024-02-21T20:34:40;10.50;99.90
25214;DHT22;13160;51.834;4.706;2024-02-21T20:37:11;10.50;99.90
25214;DHT22;13160;51.834;4.706;2024-02-21T20:39:42;10.50;99.90
25214;DHT22;13160;51.834;4.706;2024-02-21T20:42:27;10.50;99.90
25214;DHT22;13160;51.834;4.706;2024-02-21T20:44:57;10.40;99.90
25214;DHT22;13160;51.834;4.706;2024-02-21T20:47:34;10.50;99.90
25214;DHT22;13160;51.834;4.706;2024-02-21T20:50:11;10.50;99.90
25214;DHT22;13160;51.834;4.706;2024-02-21T20:53:11;10.50;99.90
25214;DHT22;13160;51.834;4.706;2024-02-21T20:55:48;10.50;99.90
25214;DHT22;13160;51.834;4.706;2024-02-21T20:58:26;10.60;99.90
25214;DHT22;13160;51.834;4.706;2024-02-21T21:01:12;10.60;99.90
25214;DHT22;13160;51.834;4.706;2024-02-21T21:04:07;10.60;99.90
